createdAt,value
2023-02-11T00:01:36.865Z,33.10
2023-02-11T00:04:06.201Z,37.72
2023-02-11T00:06:36.055Z,37.45
2023-02-11T00:09:05.126Z,38.10
2023-02-11T00:11:32.789Z,40.78
2023-02-11T00:14:02.974Z,36.90
2023-02-11T00:16:31.421Z,28.90
2023-02-11T00:19:07.496Z,29.63
2023-02-11T00:21:34.951Z,27.63
2023-02-11T00:24:02.920Z,23.63
2023-02-11T00:26:34.408Z,31.40
2023-02-11T00:29:05.875Z,28.17
2023-02-11T00:31:38.268Z,33.58
2023-02-11T00:34:06.276Z,39.78
2023-02-11T00:36:33.930Z,45.10
2023-02-11T00:39:01.293Z,59.47
2023-02-11T00:41:29.088Z,53.72
2023-02-11T00:44:04.112Z,43.83
2023-02-11T00:46:31.861Z,31.25
2023-02-11T00:48:59.261Z,28.95
2023-02-11T00:51:28.137Z,36.40
2023-02-11T00:53:55.731Z,23.90
2023-02-11T00:56:26.848Z,36.53
2023-02-11T00:58:59.567Z,33.67
2023-02-11T01:01:27.606Z,47.05
2023-02-11T01:03:55.027Z,45.90
2023-02-11T01:06:24.417Z,49.72
2023-02-11T01:08:53.238Z,54.17
2023-02-11T01:11:22.252Z,51.72
2023-02-11T01:13:50.656Z,48.63
2023-02-11T01:16:20.293Z,46.83
2023-02-11T01:18:48.912Z,34.85
2023-02-11T01:21:18.864Z,42.40
2023-02-11T01:23:46.073Z,39.55
2023-02-11T01:26:13.644Z,48.67
2023-02-11T01:28:49.866Z,56.20
2023-02-11T01:31:17.393Z,50.42
2023-02-11T01:33:49.403Z,49.08
2023-02-11T01:36:17.143Z,41.75
2023-02-11T01:38:44.902Z,43.00
2023-02-11T01:41:15.377Z,42.10
2023-02-11T01:43:46.652Z,40.83
2023-02-11T01:46:34.741Z,36.58
2023-02-11T01:49:15.422Z,34.35
2023-02-11T01:51:52.658Z,27.10
2023-02-11T01:54:42.350Z,28.80
2023-02-11T01:57:27.972Z,27.67
2023-02-11T02:00:21.965Z,32.13
2023-02-11T02:02:58.592Z,26.52
2023-02-11T02:05:54.815Z,24.65
2023-02-11T02:08:39.101Z,31.55
2023-02-11T02:11:07.053Z,30.33
2023-02-11T02:13:37.600Z,33.90
2023-02-11T02:16:12.817Z,34.03
2023-02-11T02:18:52.063Z,42.15
2023-02-11T02:21:53.238Z,38.38
2023-02-11T02:24:42.217Z,39.15
2023-02-11T02:27:16.318Z,52.97
2023-02-11T02:29:46.495Z,57.15
2023-02-11T02:32:29.017Z,51.33
2023-02-11T02:35:17.200Z,46.38
2023-02-11T02:38:01.832Z,41.28
2023-02-11T02:40:51.215Z,33.10
2023-02-11T02:43:20.287Z,34.47
2023-02-11T02:45:47.524Z,37.03
2023-02-11T02:48:29.310Z,30.35
2023-02-11T02:51:06.247Z,32.70
2023-02-11T02:53:43.141Z,32.25
2023-02-11T02:56:25.954Z,28.98
2023-02-11T02:59:08.907Z,28.35
2023-02-11T03:01:39.144Z,28.60
2023-02-11T03:04:18.544Z,29.95
2023-02-11T03:07:18.369Z,25.83
2023-02-11T03:10:09.808Z,28.65
2023-02-11T03:12:39.093Z,27.75
2023-02-11T03:15:07.606Z,28.75
2023-02-11T03:17:36.797Z,32.28
2023-02-11T03:20:07.192Z,23.92
2023-02-11T03:22:41.318Z,28.23
2023-02-11T03:25:09.751Z,31.55
2023-02-11T03:27:54.912Z,28.63
2023-02-11T03:30:35.738Z,28.73
2023-02-11T03:33:23.164Z,22.88
2023-02-11T03:36:05.518Z,26.25
2023-02-11T03:38:38.364Z,24.67
2023-02-11T03:41:08.431Z,24.98
2023-02-11T03:43:46.716Z,24.13
2023-02-11T03:46:17.988Z,25.85
2023-02-11T03:48:52.400Z,29.42
2023-02-11T03:51:22.532Z,24.67
2023-02-11T03:53:53.237Z,28.65
2023-02-11T03:56:24.799Z,23.83
2023-02-11T03:58:51.972Z,33.83
2023-02-11T04:01:19.518Z,34.20
2023-02-11T04:03:46.822Z,32.40
2023-02-11T04:06:14.131Z,25.27
2023-02-11T04:08:41.516Z,21.95
2023-02-11T04:11:08.754Z,25.48
2023-02-11T04:13:36.162Z,24.75
2023-02-11T04:16:03.525Z,20.42
2023-02-11T04:18:32.143Z,22.08
2023-02-11T04:20:59.470Z,23.40
2023-02-11T04:23:26.735Z,24.85
2023-02-11T04:25:54.035Z,29.13
2023-02-11T04:28:21.409Z,26.75
2023-02-11T04:30:50.853Z,31.13
2023-02-11T04:33:18.212Z,29.10
2023-02-11T04:35:45.684Z,28.63
2023-02-11T04:38:12.913Z,31.30
2023-02-11T04:40:40.789Z,31.58
2023-02-11T04:43:08.012Z,25.35
2023-02-11T04:45:35.584Z,27.80
2023-02-11T04:48:04.339Z,27.65
2023-02-11T04:50:31.578Z,24.50
2023-02-11T04:52:59.101Z,28.33
2023-02-11T04:55:26.232Z,32.83
2023-02-11T04:57:53.382Z,29.73
2023-02-11T05:00:20.905Z,32.10
2023-02-11T05:02:48.135Z,28.75
2023-02-11T05:05:15.262Z,31.15
2023-02-11T05:07:42.452Z,30.00
2023-02-11T05:10:09.792Z,26.15
2023-02-11T05:12:37.105Z,28.75
2023-02-11T05:15:04.987Z,27.90
2023-02-11T05:17:32.351Z,28.65
2023-02-11T05:19:59.571Z,26.92
2023-02-11T05:22:26.903Z,28.45
2023-02-11T05:24:54.175Z,24.13
2023-02-11T05:27:21.593Z,24.02
2023-02-11T05:29:48.712Z,23.40
2023-02-11T05:32:15.895Z,29.02
2023-02-11T05:34:43.113Z,27.15
2023-02-11T05:37:10.534Z,22.08
2023-02-11T05:39:37.693Z,23.90
2023-02-11T05:42:05.606Z,22.25
2023-02-11T05:44:32.713Z,24.40
2023-02-11T05:46:59.978Z,24.02
2023-02-11T05:49:27.523Z,23.73
2023-02-11T05:51:54.754Z,24.17
2023-02-11T05:54:21.902Z,21.60
2023-02-11T05:56:49.115Z,22.90
2023-02-11T05:59:16.540Z,21.40
2023-02-11T06:01:43.739Z,19.77
2023-02-11T06:04:10.926Z,21.88
2023-02-11T06:06:38.227Z,22.48
2023-02-11T06:09:05.662Z,22.73
2023-02-11T06:11:32.763Z,25.90
2023-02-11T06:14:00.150Z,21.48
2023-02-11T06:16:27.445Z,19.50
2023-02-11T06:18:54.921Z,24.65
2023-02-11T06:21:23.877Z,24.63
2023-02-11T06:23:52.417Z,25.88
2023-02-11T06:26:22.055Z,25.05
2023-02-11T06:28:49.749Z,24.00
2023-02-11T06:31:17.769Z,24.73
2023-02-11T06:33:45.081Z,24.10
2023-02-11T06:36:19.191Z,24.83
2023-02-11T06:38:51.069Z,25.67
2023-02-11T06:41:25.736Z,28.92
2023-02-11T06:43:53.970Z,30.35
2023-02-11T06:46:21.592Z,31.58
2023-02-11T06:48:48.854Z,27.77
2023-02-11T06:51:18.026Z,31.30
2023-02-11T06:53:46.919Z,26.58
2023-02-11T06:56:17.838Z,25.10
2023-02-11T06:58:45.233Z,25.83
2023-02-11T07:01:15.492Z,31.65
2023-02-11T07:03:45.177Z,33.60
2023-02-11T07:06:15.494Z,34.65
2023-02-11T07:08:43.663Z,32.63
2023-02-11T07:11:19.421Z,35.30
2023-02-11T07:13:47.869Z,36.20
2023-02-11T07:16:17.099Z,32.90
2023-02-11T07:18:45.251Z,29.25
2023-02-11T07:21:17.422Z,26.83
2023-02-11T07:23:44.988Z,26.60
2023-02-11T07:26:15.382Z,28.10
2023-02-11T07:28:44.913Z,29.42
2023-02-11T07:31:21.266Z,26.58
2023-02-11T07:33:49.311Z,27.15
2023-02-11T07:36:17.506Z,25.40
2023-02-11T07:38:44.715Z,23.33
2023-02-11T07:41:28.748Z,29.48
2023-02-11T07:43:56.917Z,30.08
2023-02-11T07:46:27.342Z,29.88
2023-02-11T07:48:55.255Z,34.28
2023-02-11T07:51:30.926Z,31.30
2023-02-11T07:54:00.493Z,33.60
2023-02-11T07:56:29.441Z,32.60
2023-02-11T07:59:00.088Z,28.90
2023-02-11T08:01:28.954Z,29.77
2023-02-11T08:03:57.380Z,29.42
2023-02-11T08:06:27.809Z,27.88
2023-02-11T08:08:55.481Z,28.27
2023-02-11T08:11:26.070Z,24.85
2023-02-11T08:13:55.004Z,25.23
2023-02-11T08:16:31.397Z,27.85
2023-02-11T08:19:01.367Z,29.55
2023-02-11T08:21:29.807Z,28.83
2023-02-11T08:23:57.517Z,32.47
2023-02-11T08:26:32.314Z,37.55
2023-02-11T08:28:59.743Z,39.60
2023-02-11T08:31:30.121Z,35.65
2023-02-11T08:33:58.546Z,36.67
2023-02-11T08:36:30.213Z,37.17
2023-02-11T08:39:18.144Z,38.35
2023-02-11T08:41:50.529Z,40.80
2023-02-11T08:44:20.251Z,38.05
2023-02-11T08:46:48.202Z,45.58
2023-02-11T08:49:15.690Z,41.05
2023-02-11T08:51:43.344Z,38.75
2023-02-11T08:54:10.555Z,43.85
2023-02-11T08:56:38.675Z,40.40
2023-02-11T08:59:06.963Z,42.58
2023-02-11T09:01:34.399Z,41.30
2023-02-11T09:04:01.757Z,48.30
2023-02-11T09:06:30.035Z,43.53
2023-02-11T09:08:58.824Z,44.50
2023-02-11T09:11:32.793Z,43.05
2023-02-11T09:14:00.870Z,42.53
2023-02-11T09:16:36.872Z,43.33
2023-02-11T09:19:05.574Z,47.47
2023-02-11T09:21:33.338Z,41.22
2023-02-11T09:24:00.541Z,44.35
2023-02-11T09:26:30.933Z,42.03
2023-02-11T09:28:58.479Z,41.40
2023-02-11T09:31:28.924Z,41.70
2023-02-11T09:34:01.114Z,42.20
2023-02-11T09:36:31.594Z,42.42
2023-02-11T09:39:00.478Z,41.35
2023-02-11T09:41:39.700Z,41.22
2023-02-11T09:44:09.765Z,41.97
2023-02-11T09:46:42.304Z,50.33
2023-02-11T09:49:20.272Z,42.10
2023-02-11T09:51:53.867Z,43.42
2023-02-11T09:56:56.541Z,47.33
2023-02-11T09:59:24.038Z,43.90
2023-02-11T10:01:58.150Z,38.17
2023-02-11T10:04:44.315Z,44.28
2023-02-11T10:07:44.928Z,45.30
2023-02-11T10:10:38.347Z,43.90
2023-02-11T10:13:30.214Z,41.40
2023-02-11T10:16:24.012Z,43.53
2023-02-11T10:19:34.773Z,38.00
2023-02-11T10:22:15.534Z,40.03
2023-02-11T10:24:51.088Z,40.70
2023-02-11T10:27:24.988Z,43.35
2023-02-11T10:30:03.086Z,42.28
2023-02-11T10:32:44.701Z,39.00
2023-02-11T10:35:21.653Z,40.75
2023-02-11T10:37:49.703Z,35.40
2023-02-11T10:40:26.606Z,35.90
2023-02-11T10:43:01.669Z,38.90
2023-02-11T10:45:50.808Z,36.47
2023-02-11T10:48:36.396Z,36.33
2023-02-11T10:51:29.846Z,33.13
2023-02-11T10:54:13.567Z,32.15
2023-02-11T10:56:53.345Z,41.70
2023-02-11T10:59:34.220Z,30.30
2023-02-11T11:02:06.282Z,33.83
2023-02-11T11:04:42.999Z,34.75
2023-02-11T11:07:32.051Z,37.95
2023-02-11T11:10:25.732Z,31.35
2023-02-11T11:12:53.061Z,34.65
2023-02-11T11:15:29.423Z,33.00
2023-02-11T11:18:22.444Z,31.60
2023-02-11T11:21:05.949Z,31.77
2023-02-11T11:23:37.249Z,33.70
2023-02-11T11:26:14.093Z,27.50
2023-02-11T11:28:50.797Z,29.63
2023-02-11T11:31:29.157Z,32.10
2023-02-11T11:33:59.856Z,31.23
2023-02-11T11:36:37.319Z,30.33
2023-02-11T11:39:27.095Z,31.48
2023-02-11T11:42:00.618Z,31.38
2023-02-11T11:47:13.830Z,29.95
2023-02-11T11:49:44.759Z,26.40
2023-02-11T11:52:21.345Z,29.20
2023-02-11T11:54:59.435Z,26.95
2023-02-11T11:57:30.255Z,25.52
2023-02-11T11:59:58.808Z,26.15
2023-02-11T12:02:53.898Z,28.88
2023-02-11T12:05:39.623Z,26.38
2023-02-11T12:08:34.599Z,28.90
2023-02-11T12:11:21.632Z,23.77
2023-02-11T12:14:04.429Z,26.58
2023-02-11T12:17:11.667Z,27.23
2023-02-11T12:19:55.627Z,26.83
2023-02-11T12:22:55.462Z,24.23
2023-02-11T12:25:27.897Z,24.17
2023-02-11T12:28:29.711Z,25.27
2023-02-11T12:31:27.241Z,28.02
2023-02-11T12:34:25.768Z,26.60
2023-02-11T12:37:16.156Z,19.88
2023-02-11T12:39:50.969Z,20.63
2023-02-11T12:42:49.530Z,20.75
2023-02-11T12:45:26.178Z,18.65
2023-02-11T12:48:35.838Z,22.08
2023-02-11T12:51:24.543Z,17.85
2023-02-11T12:54:15.246Z,20.35
2023-02-11T12:57:06.459Z,18.92
2023-02-11T12:59:39.930Z,15.80
2023-02-11T13:04:49.414Z,14.57
2023-02-11T13:07:24.217Z,14.43
2023-02-11T13:10:00.022Z,14.70
2023-02-11T13:12:48.561Z,14.55
2023-02-11T13:15:16.812Z,16.65
2023-02-11T13:18:14.293Z,16.50
2023-02-11T13:20:55.161Z,14.35
2023-02-11T13:23:39.889Z,18.05
2023-02-11T13:26:35.387Z,15.50
2023-02-11T13:29:20.975Z,16.38
2023-02-11T13:32:16.014Z,12.18
2023-02-11T13:34:43.176Z,16.52
2023-02-11T13:37:22.808Z,16.42
2023-02-11T13:40:19.141Z,14.02
2023-02-11T13:42:57.163Z,11.13
2023-02-11T13:45:36.083Z,14.32
2023-02-11T13:48:07.253Z,10.82
2023-02-11T13:50:40.079Z,10.70
2023-02-11T13:53:11.568Z,13.15
2023-02-11T13:55:40.543Z,11.55
2023-02-11T13:58:26.878Z,14.15
2023-02-11T14:00:54.969Z,14.90
2023-02-11T14:03:57.610Z,11.88
2023-02-11T14:07:08.199Z,11.73
2023-02-11T14:09:40.569Z,11.98
2023-02-11T14:12:33.435Z,15.13
2023-02-11T14:15:08.084Z,13.80
2023-02-11T14:17:35.677Z,11.77
2023-02-11T14:20:24.400Z,15.80
2023-02-11T14:22:53.953Z,12.48
2023-02-11T14:25:24.525Z,10.48
2023-02-11T14:28:05.173Z,12.20
2023-02-11T14:30:39.807Z,13.55
2023-02-11T14:33:44.700Z,13.48
2023-02-11T14:36:11.958Z,14.00
2023-02-11T14:39:04.643Z,13.10
2023-02-11T14:41:43.569Z,13.50
2023-02-11T14:44:23.034Z,12.70
2023-02-11T14:46:54.049Z,11.70
2023-02-11T14:49:40.525Z,12.68
2023-02-11T14:52:29.050Z,12.00
2023-02-11T14:55:09.731Z,10.05
2023-02-11T14:57:38.270Z,11.13
2023-02-11T15:00:19.306Z,14.93
2023-02-11T15:02:47.071Z,10.77
2023-02-11T15:05:27.581Z,10.85
2023-02-11T15:08:03.213Z,13.13
2023-02-11T15:10:36.788Z,11.10
2023-02-11T15:13:05.732Z,12.38
2023-02-11T15:15:36.257Z,14.00
2023-02-11T15:18:05.261Z,14.00
2023-02-11T15:20:34.647Z,10.43
2023-02-11T15:23:09.697Z,10.80
2023-02-11T15:25:44.733Z,9.15
2023-02-11T15:28:26.464Z,10.80
2023-02-11T15:31:18.216Z,10.95
2023-02-11T15:33:46.296Z,10.73
2023-02-11T15:36:17.249Z,9.95
2023-02-11T15:38:44.796Z,10.63
2023-02-11T15:41:36.680Z,9.77
2023-02-11T15:44:04.564Z,12.45
2023-02-11T15:46:39.093Z,11.00
2023-02-11T15:49:08.852Z,14.73
2023-02-11T15:51:40.204Z,12.35
2023-02-11T15:54:20.061Z,9.30
2023-02-11T15:56:51.425Z,17.77
2023-02-11T15:59:20.951Z,12.18
2023-02-11T16:01:49.537Z,12.35
2023-02-11T16:04:20.449Z,9.88
2023-02-11T16:06:48.653Z,12.18
2023-02-11T16:09:15.844Z,10.88
2023-02-11T16:11:49.050Z,11.63
2023-02-11T16:14:28.398Z,12.13
2023-02-11T16:17:02.826Z,9.70
2023-02-11T16:19:32.254Z,9.98
2023-02-11T16:22:02.752Z,9.90
2023-02-11T16:24:37.388Z,11.57
2023-02-11T16:27:15.932Z,12.73
2023-02-11T16:29:47.867Z,11.05
2023-02-11T16:32:24.750Z,11.15
2023-02-11T16:34:54.373Z,11.98
2023-02-11T16:37:21.622Z,10.80
2023-02-11T16:39:48.837Z,11.30
2023-02-11T16:42:16.037Z,12.95
2023-02-11T16:44:43.182Z,13.35
2023-02-11T16:47:24.107Z,12.35
2023-02-11T16:49:51.590Z,13.77
2023-02-11T16:52:21.215Z,13.82
2023-02-11T16:54:48.613Z,11.93
2023-02-11T16:57:20.892Z,16.17
2023-02-11T16:59:49.078Z,14.43
2023-02-11T17:02:23.909Z,14.00
2023-02-11T17:04:54.350Z,14.10
2023-02-11T17:07:22.599Z,16.92
2023-02-11T17:09:50.302Z,13.73
2023-02-11T17:12:17.594Z,13.50
2023-02-11T17:14:44.896Z,13.77
2023-02-11T17:17:12.555Z,15.57
2023-02-11T17:19:40.996Z,30.20
2023-02-11T17:22:08.340Z,30.48
2023-02-11T17:24:35.989Z,24.42
2023-02-11T17:27:03.537Z,20.95
2023-02-11T17:29:30.988Z,19.20
2023-02-11T17:31:58.244Z,18.80
2023-02-11T17:34:25.610Z,16.73
2023-02-11T17:36:52.994Z,19.08
2023-02-11T17:39:21.359Z,16.50
2023-02-11T17:41:48.630Z,17.23
2023-02-11T17:44:16.746Z,17.25
2023-02-11T17:46:44.935Z,15.10
2023-02-11T17:49:12.565Z,16.00
2023-02-11T17:51:40.508Z,13.18
2023-02-11T17:54:14.283Z,15.00
2023-02-11T17:56:42.688Z,18.63
2023-02-11T17:59:11.050Z,13.00
2023-02-11T18:01:39.856Z,14.90
2023-02-11T18:04:08.809Z,15.45
2023-02-11T18:06:36.052Z,12.63
2023-02-11T18:09:04.589Z,15.93
2023-02-11T18:11:34.467Z,18.60
2023-02-11T18:14:08.085Z,14.60
2023-02-11T18:16:37.067Z,16.88
2023-02-11T18:19:04.849Z,13.60
2023-02-11T18:21:32.360Z,14.20
2023-02-11T18:24:05.781Z,15.80
2023-02-11T18:26:33.533Z,14.55
2023-02-11T18:29:00.880Z,15.07
2023-02-11T18:31:28.861Z,16.08
2023-02-11T18:33:56.436Z,19.17
2023-02-11T18:36:24.439Z,18.35
2023-02-11T18:38:54.732Z,16.42
2023-02-11T18:41:22.813Z,16.10
2023-02-11T18:43:50.788Z,15.68
2023-02-11T18:46:18.257Z,17.55
2023-02-11T18:48:45.754Z,13.75
2023-02-11T18:51:21.098Z,15.60
2023-02-11T18:53:48.578Z,17.30
2023-02-11T18:56:21.689Z,16.35
2023-02-11T18:58:49.904Z,19.05
2023-02-11T19:01:24.707Z,15.82
2023-02-11T19:03:52.605Z,20.02
2023-02-11T19:06:26.939Z,22.60
2023-02-11T19:09:00.378Z,29.02
2023-02-11T19:11:49.139Z,44.08
2023-02-11T19:14:19.863Z,44.35
2023-02-11T19:16:50.648Z,41.28
2023-02-11T19:19:19.241Z,36.85
2023-02-11T19:21:50.038Z,28.95
2023-02-11T19:24:20.225Z,29.00
2023-02-11T19:26:49.942Z,27.95
2023-02-11T19:29:18.105Z,49.00
2023-02-11T19:31:46.297Z,35.40
2023-02-11T19:34:15.742Z,37.63
2023-02-11T19:36:43.814Z,33.58
2023-02-11T19:39:11.303Z,33.50
2023-02-11T19:41:38.545Z,33.00
2023-02-11T19:44:08.669Z,36.20
2023-02-11T19:46:38.810Z,39.47
2023-02-11T19:49:06.184Z,39.33
2023-02-11T19:51:36.163Z,42.70
2023-02-11T19:54:03.419Z,51.28
2023-02-11T19:56:30.668Z,42.10
2023-02-11T19:58:58.232Z,41.88
2023-02-11T20:01:26.365Z,42.72
2023-02-11T20:03:55.208Z,39.28
2023-02-11T20:06:28.528Z,32.95
2023-02-11T20:08:58.861Z,33.13
2023-02-11T20:11:28.321Z,32.40
2023-02-11T20:13:56.497Z,43.30
2023-02-11T20:16:40.664Z,46.83
2023-02-11T20:19:08.254Z,44.60
2023-02-11T20:21:35.488Z,39.08
2023-02-11T20:24:03.559Z,35.75
2023-02-11T20:26:33.345Z,33.10
2023-02-11T20:29:04.443Z,32.03
2023-02-11T20:31:33.181Z,29.23
2023-02-11T20:34:01.778Z,29.60
2023-02-11T20:36:32.622Z,27.17
2023-02-11T20:39:00.777Z,27.52
2023-02-11T20:41:34.580Z,21.80
2023-02-11T20:44:05.348Z,24.52
2023-02-11T20:46:34.131Z,25.00
2023-02-11T20:49:02.157Z,19.38
2023-02-11T20:51:32.277Z,21.45
2023-02-11T20:54:00.357Z,18.25
2023-02-11T20:56:32.540Z,25.02
2023-02-11T20:59:02.470Z,31.27
2023-02-11T21:01:33.642Z,38.08
2023-02-11T21:04:06.626Z,53.45
2023-02-11T21:06:38.708Z,87.53
2023-02-11T21:09:08.343Z,64.38
2023-02-11T21:11:35.685Z,48.25
2023-02-11T21:14:02.934Z,37.05
2023-02-11T21:16:31.901Z,35.15
2023-02-11T21:19:01.312Z,32.08
2023-02-11T21:21:29.846Z,27.20
2023-02-11T21:23:58.889Z,24.52
2023-02-11T21:26:26.272Z,25.65
2023-02-11T21:28:55.432Z,22.45
2023-02-11T21:31:25.686Z,27.48
2023-02-11T21:33:55.821Z,21.17
2023-02-11T21:36:28.116Z,23.98
2023-02-11T21:38:55.502Z,27.10
2023-02-11T21:41:22.921Z,28.70
2023-02-11T21:43:51.305Z,31.85
2023-02-11T21:46:20.069Z,36.92
2023-02-11T21:48:47.841Z,41.05
2023-02-11T21:51:19.567Z,48.00
2023-02-11T21:53:47.071Z,51.72
2023-02-11T21:56:17.496Z,54.70
2023-02-11T21:58:45.648Z,63.65
2023-02-11T22:01:18.672Z,70.15
2023-02-11T22:03:47.128Z,75.22
2023-02-11T22:06:17.872Z,71.40
2023-02-11T22:08:45.232Z,67.95
2023-02-11T22:11:13.718Z,59.85
2023-02-11T22:13:41.811Z,52.78
2023-02-11T22:16:12.954Z,47.17
2023-02-11T22:18:41.259Z,42.20
2023-02-11T22:21:14.997Z,44.83
2023-02-11T22:23:42.575Z,48.67
2023-02-11T22:26:21.182Z,50.67
2023-02-11T22:28:49.354Z,41.72
2023-02-11T22:31:19.701Z,35.78
2023-02-11T22:33:47.488Z,39.38
2023-02-11T22:36:19.877Z,35.28
2023-02-11T22:38:47.895Z,36.13
2023-02-11T22:41:15.741Z,37.80
2023-02-11T22:43:44.537Z,38.33
2023-02-11T22:46:14.793Z,47.55
2023-02-11T22:48:42.807Z,51.88
2023-02-11T22:51:19.850Z,58.83
2023-02-11T22:53:55.651Z,51.83
2023-02-11T22:56:23.936Z,40.08
2023-02-11T22:58:52.309Z,33.28
2023-02-11T23:01:20.111Z,33.30
2023-02-11T23:03:47.388Z,26.75
2023-02-11T23:06:14.673Z,25.70
2023-02-11T23:08:43.614Z,26.27
2023-02-11T23:11:17.998Z,23.75
2023-02-11T23:13:46.830Z,27.15
2023-02-11T23:16:18.228Z,28.63
2023-02-11T23:18:47.806Z,29.75
2023-02-11T23:21:35.099Z,32.10
2023-02-11T23:24:08.507Z,53.42
2023-02-11T23:26:38.725Z,55.65
2023-02-11T23:29:06.164Z,74.25
2023-02-11T23:31:37.770Z,65.80
2023-02-11T23:34:05.803Z,58.30
2023-02-11T23:36:33.729Z,52.30
2023-02-11T23:39:01.241Z,45.55
2023-02-11T23:41:28.778Z,42.13
2023-02-11T23:43:58.251Z,44.13
2023-02-11T23:46:28.304Z,33.63
2023-02-11T23:48:55.764Z,34.33
2023-02-11T23:51:23.853Z,27.20
2023-02-11T23:53:51.955Z,30.08
2023-02-11T23:56:22.594Z,27.02
2023-02-11T23:58:51.491Z,25.73
